sensor_id;sensor_type;location;lat;lon;timestamp;P1;durP1;ratioP1;P2;durP2;ratioP2
53036;SDS011;38924;52.134;4.666;2022-09-30T00:01:00;63.92;;;56.78;;
53036;SDS011;38924;52.134;4.666;2022-09-30T00:03:27;46.45;;;41.72;;
53036;SDS011;38924;52.134;4.666;2022-09-30T00:06:00;41.28;;;38.22;;
53036;SDS011;38924;52.134;4.666;2022-09-30T00:08:26;40.28;;;37.22;;
53036;SDS011;38924;52.134;4.666;2022-09-30T00:10:58;62.17;;;55.95;;
53036;SDS011;38924;52.134;4.666;2022-09-30T00:13:25;46.22;;;42.15;;
53036;SDS011;38924;52.134;4.666;2022-09-30T00:15:51;45.92;;;41.72;;
53036;SDS011;38924;52.134;4.666;2022-09-30T00:18:16;39.63;;;36.78;;
53036;SDS011;38924;52.134;4.666;2022-09-30T00:20:42;40.70;;;37.70;;
53036;SDS011;38924;52.134;4.666;2022-09-30T00:23:07;38.65;;;35.92;;
53036;SDS011;38924;52.134;4.666;2022-09-30T00:25:33;39.20;;;36.55;;
53036;SDS011;38924;52.134;4.666;2022-09-30T00:27:59;37.92;;;35.15;;
53036;SDS011;38924;52.134;4.666;2022-09-30T00:30:24;37.92;;;35.33;;
53036;SDS011;38924;52.134;4.666;2022-09-30T00:32:50;39.53;;;36.92;;
53036;SDS011;38924;52.134;4.666;2022-09-30T00:35:16;38.55;;;36.00;;
53036;SDS011;38924;52.134;4.666;2022-09-30T00:37:42;40.67;;;37.80;;
53036;SDS011;38924;52.134;4.666;2022-09-30T00:40:08;35.25;;;32.83;;
53036;SDS011;38924;52.134;4.666;2022-09-30T00:42:38;37.22;;;34.72;;
53036;SDS011;38924;52.134;4.666;2022-09-30T00:45:05;35.00;;;32.80;;
53036;SDS011;38924;52.134;4.666;2022-09-30T00:47:50;34.80;;;32.38;;
53036;SDS011;38924;52.134;4.666;2022-09-30T00:50:19;36.67;;;34.17;;
53036;SDS011;38924;52.134;4.666;2022-09-30T00:52:47;39.10;;;36.30;;
53036;SDS011;38924;52.134;4.666;2022-09-30T00:55:35;38.25;;;35.80;;
53036;SDS011;38924;52.134;4.666;2022-09-30T00:58:04;35.60;;;33.28;;
53036;SDS011;38924;52.134;4.666;2022-09-30T01:00:31;35.13;;;32.80;;
53036;SDS011;38924;52.134;4.666;2022-09-30T01:02:56;38.13;;;35.63;;
53036;SDS011;38924;52.134;4.666;2022-09-30T01:05:23;36.95;;;34.45;;
53036;SDS011;38924;52.134;4.666;2022-09-30T01:07:49;36.38;;;34.05;;
53036;SDS011;38924;52.134;4.666;2022-09-30T01:10:18;36.85;;;34.40;;
53036;SDS011;38924;52.134;4.666;2022-09-30T01:12:44;36.00;;;33.53;;
53036;SDS011;38924;52.134;4.666;2022-09-30T01:15:09;39.80;;;37.00;;
53036;SDS011;38924;52.134;4.666;2022-09-30T01:25:49;38.42;;;35.90;;
53036;SDS011;38924;52.134;4.666;2022-09-30T01:31:05;36.90;;;34.30;;
53036;SDS011;38924;52.134;4.666;2022-09-30T01:36:43;36.58;;;34.20;;
53036;SDS011;38924;52.134;4.666;2022-09-30T01:42:17;36.60;;;34.17;;
53036;SDS011;38924;52.134;4.666;2022-09-30T01:44:48;39.28;;;36.67;;
53036;SDS011;38924;52.134;4.666;2022-09-30T01:47:20;39.65;;;36.85;;
53036;SDS011;38924;52.134;4.666;2022-09-30T01:49:52;35.13;;;32.67;;
53036;SDS011;38924;52.134;4.666;2022-09-30T01:52:24;37.88;;;35.38;;
53036;SDS011;38924;52.134;4.666;2022-09-30T02:00:03;35.50;;;33.03;;
53036;SDS011;38924;52.134;4.666;2022-09-30T02:02:35;38.65;;;36.15;;
53036;SDS011;38924;52.134;4.666;2022-09-30T02:05:41;37.95;;;35.50;;
53036;SDS011;38924;52.134;4.666;2022-09-30T02:08:09;34.60;;;32.13;;
53036;SDS011;38924;52.134;4.666;2022-09-30T02:10:41;41.65;;;38.92;;
53036;SDS011;38924;52.134;4.666;2022-09-30T02:13:16;35.60;;;33.30;;
53036;SDS011;38924;52.134;4.666;2022-09-30T02:15:46;36.95;;;34.30;;
53036;SDS011;38924;52.134;4.666;2022-09-30T02:18:19;39.03;;;36.38;;
53036;SDS011;38924;52.134;4.666;2022-09-30T02:20:48;39.58;;;36.33;;
53036;SDS011;38924;52.134;4.666;2022-09-30T02:23:18;39.17;;;36.38;;
53036;SDS011;38924;52.134;4.666;2022-09-30T02:25:50;42.53;;;39.63;;
53036;SDS011;38924;52.134;4.666;2022-09-30T02:28:23;39.38;;;36.78;;
53036;SDS011;38924;52.134;4.666;2022-09-30T02:30:53;38.58;;;35.85;;
53036;SDS011;38924;52.134;4.666;2022-09-30T02:34:03;38.20;;;35.50;;
53036;SDS011;38924;52.134;4.666;2022-09-30T02:36:20;40.47;;;37.45;;
53036;SDS011;38924;52.134;4.666;2022-09-30T02:38:47;40.65;;;37.45;;
53036;SDS011;38924;52.134;4.666;2022-09-30T02:41:18;38.58;;;36.03;;
53036;SDS011;38924;52.134;4.666;2022-09-30T02:43:47;42.85;;;39.85;;
53036;SDS011;38924;52.134;4.666;2022-09-30T02:48:45;39.97;;;37.33;;
53036;SDS011;38924;52.134;4.666;2022-09-30T02:51:18;43.83;;;40.83;;
53036;SDS011;38924;52.134;4.666;2022-09-30T02:56:16;40.60;;;37.90;;
53036;SDS011;38924;52.134;4.666;2022-09-30T02:58:44;41.45;;;38.75;;
53036;SDS011;38924;52.134;4.666;2022-09-30T03:01:14;39.40;;;36.65;;
53036;SDS011;38924;52.134;4.666;2022-09-30T03:03:48;37.45;;;34.72;;
53036;SDS011;38924;52.134;4.666;2022-09-30T03:06:16;40.38;;;37.05;;
53036;SDS011;38924;52.134;4.666;2022-09-30T03:08:42;46.25;;;42.75;;
53036;SDS011;38924;52.134;4.666;2022-09-30T03:11:11;42.03;;;39.03;;
53036;SDS011;38924;52.134;4.666;2022-09-30T03:18:53;38.63;;;35.63;;
53036;SDS011;38924;52.134;4.666;2022-09-30T03:26:47;38.17;;;35.60;;
53036;SDS011;38924;52.134;4.666;2022-09-30T03:29:35;37.85;;;35.30;;
53036;SDS011;38924;52.134;4.666;2022-09-30T03:39:53;64.78;;;58.03;;
53036;SDS011;38924;52.134;4.666;2022-09-30T03:42:28;41.50;;;38.05;;
53036;SDS011;38924;52.134;4.666;2022-09-30T03:44:59;40.05;;;37.25;;
53036;SDS011;38924;52.134;4.666;2022-09-30T03:47:27;37.30;;;34.85;;
53036;SDS011;38924;52.134;4.666;2022-09-30T03:49:56;37.97;;;35.30;;
53036;SDS011;38924;52.134;4.666;2022-09-30T03:52:24;41.00;;;38.17;;
53036;SDS011;38924;52.134;4.666;2022-09-30T03:54:55;38.92;;;36.42;;
53036;SDS011;38924;52.134;4.666;2022-09-30T03:57:26;39.25;;;36.47;;
53036;SDS011;38924;52.134;4.666;2022-09-30T03:59:55;40.60;;;37.88;;
53036;SDS011;38924;52.134;4.666;2022-09-30T04:02:24;37.47;;;34.83;;
53036;SDS011;38924;52.134;4.666;2022-09-30T04:04:49;40.53;;;37.92;;
53036;SDS011;38924;52.134;4.666;2022-09-30T04:07:15;43.83;;;40.15;;
53036;SDS011;38924;52.134;4.666;2022-09-30T04:09:41;40.35;;;37.50;;
53036;SDS011;38924;52.134;4.666;2022-09-30T04:12:06;39.08;;;36.47;;
53036;SDS011;38924;52.134;4.666;2022-09-30T04:14:32;41.55;;;38.70;;
53036;SDS011;38924;52.134;4.666;2022-09-30T04:16:59;42.78;;;39.80;;
53036;SDS011;38924;52.134;4.666;2022-09-30T04:19:24;36.83;;;34.20;;
53036;SDS011;38924;52.134;4.666;2022-09-30T04:21:51;37.35;;;34.63;;
53036;SDS011;38924;52.134;4.666;2022-09-30T04:24:18;41.85;;;38.63;;
53036;SDS011;38924;52.134;4.666;2022-09-30T04:26:43;41.97;;;39.05;;
53036;SDS011;38924;52.134;4.666;2022-09-30T04:29:09;39.35;;;36.67;;
53036;SDS011;38924;52.134;4.666;2022-09-30T04:31:35;38.80;;;36.15;;
53036;SDS011;38924;52.134;4.666;2022-09-30T04:34:01;38.40;;;35.80;;
53036;SDS011;38924;52.134;4.666;2022-09-30T04:36:26;37.97;;;35.42;;
53036;SDS011;38924;52.134;4.666;2022-09-30T04:38:52;44.40;;;41.40;;
53036;SDS011;38924;52.134;4.666;2022-09-30T04:41:18;40.92;;;37.85;;
53036;SDS011;38924;52.134;4.666;2022-09-30T04:43:44;41.40;;;38.65;;
53036;SDS011;38924;52.134;4.666;2022-09-30T04:46:14;44.15;;;41.00;;
53036;SDS011;38924;52.134;4.666;2022-09-30T04:48:40;39.10;;;36.28;;
53036;SDS011;38924;52.134;4.666;2022-09-30T04:51:10;38.95;;;36.10;;
53036;SDS011;38924;52.134;4.666;2022-09-30T04:53:38;37.97;;;35.20;;
53036;SDS011;38924;52.134;4.666;2022-09-30T04:56:04;39.20;;;36.45;;
53036;SDS011;38924;52.134;4.666;2022-09-30T04:58:30;39.17;;;36.33;;
53036;SDS011;38924;52.134;4.666;2022-09-30T05:01:03;42.60;;;39.60;;
53036;SDS011;38924;52.134;4.666;2022-09-30T05:03:29;39.60;;;36.65;;
53036;SDS011;38924;52.134;4.666;2022-09-30T05:05:55;38.22;;;35.60;;
53036;SDS011;38924;52.134;4.666;2022-09-30T05:08:20;38.25;;;35.55;;
53036;SDS011;38924;52.134;4.666;2022-09-30T05:10:56;40.40;;;37.58;;
53036;SDS011;38924;52.134;4.666;2022-09-30T05:13:28;38.25;;;35.33;;
53036;SDS011;38924;52.134;4.666;2022-09-30T05:15:54;39.10;;;36.13;;
53036;SDS011;38924;52.134;4.666;2022-09-30T05:18:20;43.83;;;40.25;;
53036;SDS011;38924;52.134;4.666;2022-09-30T05:20:49;41.78;;;38.92;;
53036;SDS011;38924;52.134;4.666;2022-09-30T05:23:16;40.97;;;38.05;;
53036;SDS011;38924;52.134;4.666;2022-09-30T05:25:42;41.80;;;38.40;;
53036;SDS011;38924;52.134;4.666;2022-09-30T05:28:08;37.92;;;35.15;;
53036;SDS011;38924;52.134;4.666;2022-09-30T05:30:33;43.30;;;39.83;;
53036;SDS011;38924;52.134;4.666;2022-09-30T05:32:59;44.08;;;40.17;;
53036;SDS011;38924;52.134;4.666;2022-09-30T05:35:25;40.80;;;37.50;;
53036;SDS011;38924;52.134;4.666;2022-09-30T05:37:50;40.58;;;37.45;;
53036;SDS011;38924;52.134;4.666;2022-09-30T05:40:16;43.65;;;39.83;;
53036;SDS011;38924;52.134;4.666;2022-09-30T05:42:44;41.63;;;38.17;;
53036;SDS011;38924;52.134;4.666;2022-09-30T05:45:11;40.88;;;37.88;;
53036;SDS011;38924;52.134;4.666;2022-09-30T05:47:37;39.08;;;36.00;;
53036;SDS011;38924;52.134;4.666;2022-09-30T05:50:04;42.60;;;39.28;;
53036;SDS011;38924;52.134;4.666;2022-09-30T05:52:29;38.15;;;35.30;;
53036;SDS011;38924;52.134;4.666;2022-09-30T05:54:55;40.80;;;38.03;;
53036;SDS011;38924;52.134;4.666;2022-09-30T05:57:23;43.22;;;40.00;;
53036;SDS011;38924;52.134;4.666;2022-09-30T05:59:50;40.08;;;37.30;;
53036;SDS011;38924;52.134;4.666;2022-09-30T06:02:15;38.78;;;36.05;;
53036;SDS011;38924;52.134;4.666;2022-09-30T06:04:41;39.45;;;36.75;;
53036;SDS011;38924;52.134;4.666;2022-09-30T06:07:06;40.88;;;37.60;;
53036;SDS011;38924;52.134;4.666;2022-09-30T06:09:32;38.22;;;35.53;;
53036;SDS011;38924;52.134;4.666;2022-09-30T06:11:58;40.60;;;37.63;;
53036;SDS011;38924;52.134;4.666;2022-09-30T06:14:24;36.13;;;33.65;;
53036;SDS011;38924;52.134;4.666;2022-09-30T06:16:50;40.67;;;37.17;;
53036;SDS011;38924;52.134;4.666;2022-09-30T06:19:16;40.92;;;37.97;;
53036;SDS011;38924;52.134;4.666;2022-09-30T06:21:41;44.53;;;41.33;;
53036;SDS011;38924;52.134;4.666;2022-09-30T06:24:07;44.50;;;41.10;;
53036;SDS011;38924;52.134;4.666;2022-09-30T06:26:37;40.88;;;37.50;;
53036;SDS011;38924;52.134;4.666;2022-09-30T06:29:03;39.15;;;36.42;;
53036;SDS011;38924;52.134;4.666;2022-09-30T06:31:32;43.85;;;39.45;;
53036;SDS011;38924;52.134;4.666;2022-09-30T06:33:58;39.67;;;36.75;;
53036;SDS011;38924;52.134;4.666;2022-09-30T06:36:23;41.10;;;37.58;;
53036;SDS011;38924;52.134;4.666;2022-09-30T06:38:49;40.83;;;37.88;;
53036;SDS011;38924;52.134;4.666;2022-09-30T06:41:19;38.88;;;35.50;;
53036;SDS011;38924;52.134;4.666;2022-09-30T06:43:44;44.03;;;40.63;;
53036;SDS011;38924;52.134;4.666;2022-09-30T06:46:13;46.45;;;42.90;;
53036;SDS011;38924;52.134;4.666;2022-09-30T06:48:39;43.40;;;40.25;;
53036;SDS011;38924;52.134;4.666;2022-09-30T06:51:05;41.33;;;38.42;;
53036;SDS011;38924;52.134;4.666;2022-09-30T06:53:34;49.00;;;44.92;;
53036;SDS011;38924;52.134;4.666;2022-09-30T06:56:00;82.53;;;72.70;;
53036;SDS011;38924;52.134;4.666;2022-09-30T06:58:28;50.70;;;46.78;;
53036;SDS011;38924;52.134;4.666;2022-09-30T07:00:55;40.75;;;38.00;;
53036;SDS011;38924;52.134;4.666;2022-09-30T07:03:25;39.47;;;36.58;;
53036;SDS011;38924;52.134;4.666;2022-09-30T07:06:03;37.13;;;34.50;;
53036;SDS011;38924;52.134;4.666;2022-09-30T07:08:29;40.08;;;37.42;;
53036;SDS011;38924;52.134;4.666;2022-09-30T07:10:59;40.47;;;37.67;;
53036;SDS011;38924;52.134;4.666;2022-09-30T07:13:28;42.95;;;39.75;;
53036;SDS011;38924;52.134;4.666;2022-09-30T07:15:54;41.10;;;38.28;;
53036;SDS011;38924;52.134;4.666;2022-09-30T07:18:21;39.55;;;36.90;;
53036;SDS011;38924;52.134;4.666;2022-09-30T07:20:48;38.85;;;36.15;;
53036;SDS011;38924;52.134;4.666;2022-09-30T07:23:14;40.45;;;37.45;;
53036;SDS011;38924;52.134;4.666;2022-09-30T07:25:47;44.25;;;41.22;;
53036;SDS011;38924;52.134;4.666;2022-09-30T07:28:13;47.67;;;44.22;;
53036;SDS011;38924;52.134;4.666;2022-09-30T07:30:40;44.88;;;41.67;;
53036;SDS011;38924;52.134;4.666;2022-09-30T07:33:08;40.03;;;36.78;;
53036;SDS011;38924;52.134;4.666;2022-09-30T07:35:34;43.78;;;40.45;;
53036;SDS011;38924;52.134;4.666;2022-09-30T07:37:59;42.25;;;39.28;;
53036;SDS011;38924;52.134;4.666;2022-09-30T07:40:25;41.10;;;38.20;;
53036;SDS011;38924;52.134;4.666;2022-09-30T07:42:56;39.00;;;36.13;;
53036;SDS011;38924;52.134;4.666;2022-09-30T07:45:22;43.40;;;40.30;;
53036;SDS011;38924;52.134;4.666;2022-09-30T07:47:48;45.28;;;42.13;;
53036;SDS011;38924;52.134;4.666;2022-09-30T07:50:14;46.28;;;42.78;;
53036;SDS011;38924;52.134;4.666;2022-09-30T07:52:41;46.17;;;42.75;;
53036;SDS011;38924;52.134;4.666;2022-09-30T07:55:07;45.13;;;41.92;;
53036;SDS011;38924;52.134;4.666;2022-09-30T07:57:33;50.35;;;46.35;;
53036;SDS011;38924;52.134;4.666;2022-09-30T07:59:58;48.97;;;45.63;;
53036;SDS011;38924;52.134;4.666;2022-09-30T08:02:24;63.60;;;59.40;;
53036;SDS011;38924;52.134;4.666;2022-09-30T08:04:50;72.32;;;67.72;;
53036;SDS011;38924;52.134;4.666;2022-09-30T08:07:16;65.85;;;61.55;;
53036;SDS011;38924;52.134;4.666;2022-09-30T08:09:42;71.35;;;66.60;;
53036;SDS011;38924;52.134;4.666;2022-09-30T08:12:08;71.50;;;66.65;;
53036;SDS011;38924;52.134;4.666;2022-09-30T08:14:34;73.95;;;69.07;;
53036;SDS011;38924;52.134;4.666;2022-09-30T08:16:59;62.35;;;58.40;;
53036;SDS011;38924;52.134;4.666;2022-09-30T08:19:26;71.85;;;67.32;;
53036;SDS011;38924;52.134;4.666;2022-09-30T08:21:52;63.08;;;58.95;;
53036;SDS011;38924;52.134;4.666;2022-09-30T08:24:18;57.13;;;53.40;;
53036;SDS011;38924;52.134;4.666;2022-09-30T08:26:44;54.50;;;50.17;;
53036;SDS011;38924;52.134;4.666;2022-09-30T08:29:10;52.78;;;49.17;;
53036;SDS011;38924;52.134;4.666;2022-09-30T08:31:38;59.30;;;55.13;;
53036;SDS011;38924;52.134;4.666;2022-09-30T08:34:03;74.47;;;69.72;;
53036;SDS011;38924;52.134;4.666;2022-09-30T08:36:29;71.80;;;67.35;;
53036;SDS011;38924;52.134;4.666;2022-09-30T08:38:55;70.78;;;66.30;;
53036;SDS011;38924;52.134;4.666;2022-09-30T08:41:36;73.45;;;68.32;;
53036;SDS011;38924;52.134;4.666;2022-09-30T08:51:51;107.82;;;101.35;;
53036;SDS011;38924;52.134;4.666;2022-09-30T08:54:19;106.40;;;99.85;;
53036;SDS011;38924;52.134;4.666;2022-09-30T08:56:46;132.07;;;124.07;;
53036;SDS011;38924;52.134;4.666;2022-09-30T09:02:16;110.80;;;104.05;;
53036;SDS011;38924;52.134;4.666;2022-09-30T09:04:43;118.50;;;111.18;;
53036;SDS011;38924;52.134;4.666;2022-09-30T09:07:16;123.95;;;116.55;;
53036;SDS011;38924;52.134;4.666;2022-09-30T09:09:47;176.45;;;165.82;;
53036;SDS011;38924;52.134;4.666;2022-09-30T09:20:21;119.53;;;112.25;;
53036;SDS011;38924;52.134;4.666;2022-09-30T09:22:47;114.95;;;108.03;;
53036;SDS011;38924;52.134;4.666;2022-09-30T09:25:15;150.95;;;141.85;;
53036;SDS011;38924;52.134;4.666;2022-09-30T09:27:50;155.70;;;146.20;;
53036;SDS011;38924;52.134;4.666;2022-09-30T09:32:47;86.03;;;80.95;;
53036;SDS011;38924;52.134;4.666;2022-09-30T09:35:59;143.48;;;134.90;;
53036;SDS011;38924;52.134;4.666;2022-09-30T09:38:12;118.45;;;111.30;;
53036;SDS011;38924;52.134;4.666;2022-09-30T09:46:13;123.93;;;116.40;;
53036;SDS011;38924;52.134;4.666;2022-09-30T09:48:41;136.50;;;128.32;;
53036;SDS011;38924;52.134;4.666;2022-09-30T09:56:12;147.10;;;138.40;;
53036;SDS011;38924;52.134;4.666;2022-09-30T10:01:29;122.43;;;115.00;;
53036;SDS011;38924;52.134;4.666;2022-09-30T10:04:11;116.68;;;109.70;;
53036;SDS011;38924;52.134;4.666;2022-09-30T10:06:49;124.47;;;116.88;;
53036;SDS011;38924;52.134;4.666;2022-09-30T10:09:22;130.43;;;122.63;;
53036;SDS011;38924;52.134;4.666;2022-09-30T10:11:48;132.35;;;124.53;;
53036;SDS011;38924;52.134;4.666;2022-09-30T10:14:18;130.95;;;123.07;;
53036;SDS011;38924;52.134;4.666;2022-09-30T10:16:45;140.73;;;132.43;;
53036;SDS011;38924;52.134;4.666;2022-09-30T10:19:20;127.72;;;120.07;;
53036;SDS011;38924;52.134;4.666;2022-09-30T10:21:47;107.63;;;101.18;;
53036;SDS011;38924;52.134;4.666;2022-09-30T10:26:44;139.52;;;131.02;;
53036;SDS011;38924;52.134;4.666;2022-09-30T10:29:23;127.50;;;119.65;;
53036;SDS011;38924;52.134;4.666;2022-09-30T10:31:50;114.00;;;107.22;;
53036;SDS011;38924;52.134;4.666;2022-09-30T10:34:22;136.40;;;128.00;;
53036;SDS011;38924;52.134;4.666;2022-09-30T10:36:49;138.43;;;130.13;;
53036;SDS011;38924;52.134;4.666;2022-09-30T10:39:29;112.20;;;105.57;;
53036;SDS011;38924;52.134;4.666;2022-09-30T10:44:26;137.38;;;129.25;;
53036;SDS011;38924;52.134;4.666;2022-09-30T10:46:52;136.88;;;128.65;;
53036;SDS011;38924;52.134;4.666;2022-09-30T10:49:25;105.20;;;98.72;;
53036;SDS011;38924;52.134;4.666;2022-09-30T10:51:52;127.68;;;119.72;;
53036;SDS011;38924;52.134;4.666;2022-09-30T10:57:02;96.43;;;90.68;;
53036;SDS011;38924;52.134;4.666;2022-09-30T10:59:35;148.60;;;139.52;;
53036;SDS011;38924;52.134;4.666;2022-09-30T11:04:40;95.97;;;90.25;;
53036;SDS011;38924;52.134;4.666;2022-09-30T11:07:21;95.07;;;89.38;;
53036;SDS011;38924;52.134;4.666;2022-09-30T11:09:53;77.95;;;73.35;;
53036;SDS011;38924;52.134;4.666;2022-09-30T11:12:37;64.68;;;60.97;;
53036;SDS011;38924;52.134;4.666;2022-09-30T11:17:39;73.40;;;69.07;;
53036;SDS011;38924;52.134;4.666;2022-09-30T11:20:10;74.00;;;69.63;;
53036;SDS011;38924;52.134;4.666;2022-09-30T11:23:00;64.75;;;60.88;;
53036;SDS011;38924;52.134;4.666;2022-09-30T11:25:45;60.58;;;56.47;;
53036;SDS011;38924;52.134;4.666;2022-09-30T11:28:24;71.05;;;66.78;;
53036;SDS011;38924;52.134;4.666;2022-09-30T11:30:57;72.13;;;67.80;;
53036;SDS011;38924;52.134;4.666;2022-09-30T11:54:45;79.72;;;74.85;;
53036;SDS011;38924;52.134;4.666;2022-09-30T11:59:51;80.80;;;75.70;;
53036;SDS011;38924;52.134;4.666;2022-09-30T12:02:18;82.45;;;77.13;;
53036;SDS011;38924;52.134;4.666;2022-09-30T12:04:47;87.22;;;81.80;;
53036;SDS011;38924;52.134;4.666;2022-09-30T12:07:17;89.75;;;83.82;;
53036;SDS011;38924;52.134;4.666;2022-09-30T12:09:48;92.03;;;86.05;;
53036;SDS011;38924;52.134;4.666;2022-09-30T12:12:18;87.93;;;82.57;;
53036;SDS011;38924;52.134;4.666;2022-09-30T12:17:20;87.72;;;82.45;;
53036;SDS011;38924;52.134;4.666;2022-09-30T12:19:52;92.05;;;86.38;;
53036;SDS011;38924;52.134;4.666;2022-09-30T12:22:21;90.82;;;85.35;;
53036;SDS011;38924;52.134;4.666;2022-09-30T12:24:49;71.35;;;66.72;;
53036;SDS011;38924;52.134;4.666;2022-09-30T12:27:24;65.40;;;61.55;;
53036;SDS011;38924;52.134;4.666;2022-09-30T12:29:59;63.70;;;59.60;;
53036;SDS011;38924;52.134;4.666;2022-09-30T12:43:33;55.53;;;52.22;;
53036;SDS011;38924;52.134;4.666;2022-09-30T12:48:37;67.22;;;63.08;;
53036;SDS011;38924;52.134;4.666;2022-09-30T12:51:04;65.28;;;61.10;;
53036;SDS011;38924;52.134;4.666;2022-09-30T12:53:31;62.65;;;59.05;;
53036;SDS011;38924;52.134;4.666;2022-09-30T12:56:08;57.95;;;54.40;;
53036;SDS011;38924;52.134;4.666;2022-09-30T12:58:35;67.90;;;63.70;;
53036;SDS011;38924;52.134;4.666;2022-09-30T13:01:04;70.95;;;66.78;;
53036;SDS011;38924;52.134;4.666;2022-09-30T13:03:43;65.70;;;61.90;;
53036;SDS011;38924;52.134;4.666;2022-09-30T13:06:13;57.90;;;53.90;;
53036;SDS011;38924;52.134;4.666;2022-09-30T13:11:39;69.70;;;65.23;;
53036;SDS011;38924;52.134;4.666;2022-09-30T13:30:30;64.47;;;60.30;;
53036;SDS011;38924;52.134;4.666;2022-09-30T13:40:42;71.68;;;67.43;;
53036;SDS011;38924;52.134;4.666;2022-09-30T13:43:12;75.13;;;70.53;;
53036;SDS011;38924;52.134;4.666;2022-09-30T13:45:39;63.42;;;59.63;;
53036;SDS011;38924;52.134;4.666;2022-09-30T13:48:13;65.13;;;61.30;;
53036;SDS011;38924;52.134;4.666;2022-09-30T13:53:11;48.63;;;45.08;;
53036;SDS011;38924;52.134;4.666;2022-09-30T13:55:43;53.97;;;50.75;;
53036;SDS011;38924;52.134;4.666;2022-09-30T14:00:46;57.78;;;54.15;;
53036;SDS011;38924;52.134;4.666;2022-09-30T14:03:19;52.85;;;49.53;;
53036;SDS011;38924;52.134;4.666;2022-09-30T14:16:09;56.88;;;53.33;;
53036;SDS011;38924;52.134;4.666;2022-09-30T14:26:55;55.83;;;52.20;;
53036;SDS011;38924;52.134;4.666;2022-09-30T14:29:28;52.88;;;49.75;;
53036;SDS011;38924;52.134;4.666;2022-09-30T14:31:58;53.97;;;50.72;;
53036;SDS011;38924;52.134;4.666;2022-09-30T14:34:24;56.53;;;53.10;;
53036;SDS011;38924;52.134;4.666;2022-09-30T14:36:51;53.47;;;50.28;;
53036;SDS011;38924;52.134;4.666;2022-09-30T14:39:19;64.35;;;60.45;;
53036;SDS011;38924;52.134;4.666;2022-09-30T14:41:48;58.10;;;54.25;;
53036;SDS011;38924;52.134;4.666;2022-09-30T14:44:14;63.50;;;59.33;;
53036;SDS011;38924;52.134;4.666;2022-09-30T14:46:42;64.65;;;60.78;;
53036;SDS011;38924;52.134;4.666;2022-09-30T14:49:12;59.80;;;55.83;;
53036;SDS011;38924;52.134;4.666;2022-09-30T14:51:40;60.00;;;56.17;;
53036;SDS011;38924;52.134;4.666;2022-09-30T14:54:21;54.35;;;51.00;;
53036;SDS011;38924;52.134;4.666;2022-09-30T14:56:47;54.75;;;51.40;;
53036;SDS011;38924;52.134;4.666;2022-09-30T14:59:15;58.33;;;54.47;;
53036;SDS011;38924;52.134;4.666;2022-09-30T15:01:41;58.42;;;54.80;;
53036;SDS011;38924;52.134;4.666;2022-09-30T15:04:13;52.63;;;49.33;;
53036;SDS011;38924;52.134;4.666;2022-09-30T15:06:42;50.35;;;47.30;;
53036;SDS011;38924;52.134;4.666;2022-09-30T15:09:31;54.05;;;50.53;;
53036;SDS011;38924;52.134;4.666;2022-09-30T15:12:04;49.10;;;45.97;;
53036;SDS011;38924;52.134;4.666;2022-09-30T15:14:30;54.05;;;50.38;;
53036;SDS011;38924;52.134;4.666;2022-09-30T15:16:57;53.95;;;50.60;;
53036;SDS011;38924;52.134;4.666;2022-09-30T15:19:24;65.53;;;61.47;;
53036;SDS011;38924;52.134;4.666;2022-09-30T15:21:51;63.47;;;59.13;;
53036;SDS011;38924;52.134;4.666;2022-09-30T15:24:18;62.55;;;58.75;;
53036;SDS011;38924;52.134;4.666;2022-09-30T15:26:47;59.78;;;56.10;;
53036;SDS011;38924;52.134;4.666;2022-09-30T15:29:14;65.63;;;61.40;;
53036;SDS011;38924;52.134;4.666;2022-09-30T15:31:41;64.18;;;60.05;;
53036;SDS011;38924;52.134;4.666;2022-09-30T15:34:15;65.35;;;61.13;;
53036;SDS011;38924;52.134;4.666;2022-09-30T15:36:42;60.35;;;56.67;;
53036;SDS011;38924;52.134;4.666;2022-09-30T15:39:16;64.68;;;60.05;;
53036;SDS011;38924;52.134;4.666;2022-09-30T15:41:42;61.15;;;57.22;;
53036;SDS011;38924;52.134;4.666;2022-09-30T15:46:59;64.57;;;60.35;;
53036;SDS011;38924;52.134;4.666;2022-09-30T15:52:18;66.13;;;61.50;;
53036;SDS011;38924;52.134;4.666;2022-09-30T15:54:44;59.35;;;55.55;;
53036;SDS011;38924;52.134;4.666;2022-09-30T15:57:35;67.55;;;63.15;;
53036;SDS011;38924;52.134;4.666;2022-09-30T16:00:04;60.58;;;56.45;;
53036;SDS011;38924;52.134;4.666;2022-09-30T16:02:33;61.00;;;57.22;;
53036;SDS011;38924;52.134;4.666;2022-09-30T16:04:58;58.55;;;54.85;;
53036;SDS011;38924;52.134;4.666;2022-09-30T16:07:26;59.85;;;55.88;;
53036;SDS011;38924;52.134;4.666;2022-09-30T16:09:53;59.17;;;55.25;;
53036;SDS011;38924;52.134;4.666;2022-09-30T16:12:21;56.15;;;52.35;;
53036;SDS011;38924;52.134;4.666;2022-09-30T16:14:49;58.53;;;54.67;;
53036;SDS011;38924;52.134;4.666;2022-09-30T16:17:18;61.85;;;57.90;;
53036;SDS011;38924;52.134;4.666;2022-09-30T16:19:51;53.85;;;50.03;;
53036;SDS011;38924;52.134;4.666;2022-09-30T16:25:16;51.88;;;48.47;;
53036;SDS011;38924;52.134;4.666;2022-09-30T16:27:42;60.28;;;56.45;;
53036;SDS011;38924;52.134;4.666;2022-09-30T16:30:11;61.05;;;57.13;;
53036;SDS011;38924;52.134;4.666;2022-09-30T16:32:38;52.95;;;49.60;;
53036;SDS011;38924;52.134;4.666;2022-09-30T16:35:04;59.80;;;55.97;;
53036;SDS011;38924;52.134;4.666;2022-09-30T16:37:30;54.17;;;50.38;;
53036;SDS011;38924;52.134;4.666;2022-09-30T16:39:57;60.33;;;56.33;;
53036;SDS011;38924;52.134;4.666;2022-09-30T16:42:26;56.78;;;53.30;;
53036;SDS011;38924;52.134;4.666;2022-09-30T16:44:51;54.17;;;50.85;;
53036;SDS011;38924;52.134;4.666;2022-09-30T16:47:17;54.10;;;50.40;;
53036;SDS011;38924;52.134;4.666;2022-09-30T16:49:48;59.65;;;55.85;;
53036;SDS011;38924;52.134;4.666;2022-09-30T16:52:15;56.95;;;53.15;;
53036;SDS011;38924;52.134;4.666;2022-09-30T16:54:41;55.92;;;51.85;;
53036;SDS011;38924;52.134;4.666;2022-09-30T16:57:07;56.97;;;53.10;;
53036;SDS011;38924;52.134;4.666;2022-09-30T16:59:37;57.83;;;54.25;;
53036;SDS011;38924;52.134;4.666;2022-09-30T17:02:03;56.63;;;52.78;;
53036;SDS011;38924;52.134;4.666;2022-09-30T17:04:29;57.58;;;53.78;;
53036;SDS011;38924;52.134;4.666;2022-09-30T17:06:56;57.58;;;53.95;;
53036;SDS011;38924;52.134;4.666;2022-09-30T17:09:22;53.50;;;49.97;;
53036;SDS011;38924;52.134;4.666;2022-09-30T17:11:47;60.40;;;56.40;;
53036;SDS011;38924;52.134;4.666;2022-09-30T17:14:15;59.58;;;55.47;;
53036;SDS011;38924;52.134;4.666;2022-09-30T17:16:42;58.25;;;54.55;;
53036;SDS011;38924;52.134;4.666;2022-09-30T17:19:07;53.92;;;50.53;;
53036;SDS011;38924;52.134;4.666;2022-09-30T17:21:33;53.05;;;49.58;;
53036;SDS011;38924;52.134;4.666;2022-09-30T17:23:59;59.30;;;55.33;;
53036;SDS011;38924;52.134;4.666;2022-09-30T17:26:24;57.40;;;53.72;;
53036;SDS011;38924;52.134;4.666;2022-09-30T17:28:50;57.55;;;53.97;;
53036;SDS011;38924;52.134;4.666;2022-09-30T17:31:16;55.55;;;51.95;;
53036;SDS011;38924;52.134;4.666;2022-09-30T17:33:42;62.00;;;57.65;;
53036;SDS011;38924;52.134;4.666;2022-09-30T17:36:08;56.92;;;53.50;;
53036;SDS011;38924;52.134;4.666;2022-09-30T17:38:34;55.88;;;51.50;;
53036;SDS011;38924;52.134;4.666;2022-09-30T17:41:06;55.30;;;51.80;;